Time;durP1;ratioP1;P1;durP2;ratioP2;P2;SDS_P1;SDS_P2;PMS_P1;PMS_P2;Temp;Humidity;BMP_temperature;BMP_pressure;BME280_temperature;BME280_humidity;BME280_pressure;Samples;Min_cycle;Max_cycle;Signal;HPM_P1;HPM_P2
2022/08/21 00:02:20;;;;;;;;;;;;;;;12.20;100.00;101648.06;6542126;22;19912;-87
2022/08/21 00:04:55;;;;;;;;;;;;;;;12.12;100.00;101645.22;6515463;22;19995;-87
2022/08/21 00:07:26;;;;;;;;;;;;;;;12.02;100.00;101650.50;6542936;22;19904;-86
2022/08/21 00:10:00;;;;;;;;;;;;;;;11.93;100.00;101645.94;6543536;22;20303;-87
2022/08/21 00:12:34;;;;;;;;;;;;;;;11.89;100.00;101653.34;6517276;22;19908;-87
2022/08/21 00:15:08;;;;;;;;;;;;;;;11.84;100.00;101650.22;6545874;22;19908;-87
2022/08/21 00:17:39;;;;;;;;;;;;;;;11.79;100.00;101643.59;6546344;22;19903;-87
2022/08/21 00:20:15;;;;;;;;;;;;;;;11.80;100.00;101642.59;6521078;22;20349;-86
2022/08/21 00:22:47;;;;;;;;;;;;;;;11.88;100.00;101634.75;6550314;22;19907;-86
2022/08/21 00:25:19;;;;;;;;;;;;;;;11.93;100.00;101639.75;6551738;22;19994;-86
2022/08/21 00:27:51;;;;;;;;;;;;;;;12.06;100.00;101643.06;6523013;22;19943;-86
2022/08/21 00:30:24;;;;;;;;;;;;;;;12.19;100.00;101638.34;6547950;22;19908;-86
2022/08/21 00:32:58;;;;;;;;;;;;;;;12.24;100.00;101638.78;6520293;22;19907;-86
2022/08/21 00:35:33;;;;;;;;;;;;;;;12.33;100.00;101641.66;6516335;22;20349;-86
2022/08/21 00:38:16;;;;;;;;;;;;;;;12.40;100.00;101638.28;6517177;22;19907;-86
2022/08/21 00:41:04;;;;;;;;;;;;;;;12.43;100.00;101640.72;6513962;22;19904;-86
2022/08/21 00:43:39;;;;;;;;;;;;;;;12.51;100.00;101626.63;6543469;22;19911;-86
2022/08/21 00:46:16;;;;;;;;;;;;;;;12.60;100.00;101628.50;6516573;22;19912;-86
2022/08/21 00:48:50;;;;;;;;;;;;;;;12.65;100.00;101633.44;6514927;22;19915;-86
2022/08/21 00:51:41;;;;;;;;;;;;;;;12.64;100.00;101629.94;6516858;22;19907;-86
2022/08/21 00:54:13;;;;;;;;;;;;;;;12.62;100.00;101628.34;6517206;22;19914;-86
2022/08/21 00:56:50;;;;;;;;;;;;;;;12.61;100.00;101634.72;6543960;22;19904;-86
2022/08/21 00:59:29;;;;;;;;;;;;;;;12.57;100.00;101630.59;6543984;22;19912;-86
2022/08/21 01:02:10;;;;;;;;;;;;;;;12.42;100.00;101635.50;6516182;22;19918;-86
2022/08/21 01:04:44;;;;;;;;;;;;;;;12.26;100.00;101631.47;6543512;22;19904;-86
2022/08/21 01:07:19;;;;;;;;;;;;;;;12.14;100.00;101629.03;6516136;22;20842;-85
2022/08/21 01:09:51;;;;;;;;;;;;;;;12.06;100.00;101633.22;6516116;22;19907;-85
2022/08/21 01:12:23;;;;;;;;;;;;;;;12.00;100.00;101628.41;6517023;22;20002;-86
2022/08/21 01:15:00;;;;;;;;;;;;;;;11.92;100.00;101630.88;6516833;22;19904;-86
2022/08/21 01:17:31;;;;;;;;;;;;;;;11.84;100.00;101633.34;6543727;22;19912;-86
2022/08/21 01:20:06;;;;;;;;;;;;;;;11.76;100.00;101633.97;6516792;22;20017;-86
2022/08/21 01:22:41;;;;;;;;;;;;;;;11.72;100.00;101625.38;6515932;22;19907;-85
2022/08/21 01:25:14;;;;;;;;;;;;;;;11.69;100.00;101624.78;6515955;22;19977;-86
2022/08/21 01:27:46;;;;;;;;;;;;;;;11.74;100.00;101622.59;6516362;22;19998;-86
2022/08/21 01:30:26;;;;;;;;;;;;;;;11.77;100.00;101624.16;6515560;22;19945;-85
2022/08/21 01:32:57;;;;;;;;;;;;;;;11.79;100.00;101628.38;6516581;22;19908;-85
2022/08/21 01:35:28;;;;;;;;;;;;;;;11.69;100.00;101622.13;6515838;22;19903;-86
2022/08/21 01:38:00;;;;;;;;;;;;;;;11.60;100.00;101622.91;6543195;22;19947;-85
2022/08/21 01:40:37;;;;;;;;;;;;;;;11.55;100.00;101625.97;6516039;22;19931;-85
2022/08/21 01:43:11;;;;;;;;;;;;;;;11.51;100.00;101621.88;6515464;22;20303;-85
2022/08/21 01:45:45;;;;;;;;;;;;;;;11.45;100.00;101633.09;6512469;22;20340;-85
2022/08/21 01:48:16;;;;;;;;;;;;;;;11.37;100.00;101620.34;6514913;22;19919;-85
2022/08/21 01:50:50;;;;;;;;;;;;;;;11.30;100.00;101621.84;6515029;22;19903;-86
2022/08/21 01:53:24;;;;;;;;;;;;;;;11.24;100.00;101622.38;6543744;22;19910;-85
2022/08/21 01:55:55;;;;;;;;;;;;;;;11.18;100.00;101625.53;6542520;22;19907;-85
2022/08/21 01:58:30;;;;;;;;;;;;;;;11.01;100.00;101619.78;6515890;22;19990;-85
2022/08/21 02:01:02;;;;;;;;;;;;;;;10.85;100.00;101619.31;6542101;22;19911;-85
2022/08/21 02:03:33;;;;;;;;;;;;;;;10.84;100.00;101610.47;6515961;22;20377;-86
2022/08/21 02:06:08;;;;;;;;;;;;;;;10.77;100.00;101609.28;6514787;22;19922;-86
2022/08/21 02:08:43;;;;;;;;;;;;;;;10.72;100.00;101609.66;6542959;22;20432;-87
2022/08/21 02:11:14;;;;;;;;;;;;;;;10.74;100.00;101606.84;6515961;22;19910;-87
2022/08/21 02:13:48;;;;;;;;;;;;;;;10.70;100.00;101594.75;6515719;22;19908;-87
2022/08/21 02:16:20;;;;;;;;;;;;;;;10.67;100.00;101595.00;6515598;22;19907;-84
2022/08/21 02:18:51;;;;;;;;;;;;;;;10.63;100.00;101597.06;6541980;22;19914;-84
2022/08/21 02:21:23;;;;;;;;;;;;;;;10.65;100.00;101588.94;6515718;22;19903;-86
2022/08/21 02:23:54;;;;;;;;;;;;;;;10.62;100.00;101595.34;6515080;22;19981;-85
2022/08/21 02:26:26;;;;;;;;;;;;;;;10.53;100.00;101599.63;6515146;22;19903;-85
2022/08/21 02:28:57;;;;;;;;;;;;;;;10.46;100.00;101606.41;6541296;22;19931;-87
2022/08/21 02:31:29;;;;;;;;;;;;;;;10.38;100.00;101608.88;6516172;22;19907;-87
2022/08/21 02:34:00;;;;;;;;;;;;;;;10.57;100.00;101601.09;6515847;22;19908;-87
2022/08/21 02:36:36;;;;;;;;;;;;;;;10.66;100.00;101610.16;6515803;22;20310;-87
2022/08/21 02:39:08;;;;;;;;;;;;;;;10.52;100.00;101605.09;6515414;22;19914;-87
2022/08/21 02:41:48;;;;;;;;;;;;;;;10.43;100.00;101598.69;6515941;22;19904;-87
2022/08/21 02:44:20;;;;;;;;;;;;;;;10.32;100.00;101602.19;6515690;22;19911;-87
2022/08/21 02:46:55;;;;;;;;;;;;;;;10.31;100.00;101599.59;6516020;22;19918;-87
2022/08/21 02:49:26;;;;;;;;;;;;;;;10.36;100.00;101597.44;6515367;22;20286;-87
2022/08/21 02:51:58;;;;;;;;;;;;;;;10.52;100.00;101595.28;6542502;22;19912;-85
2022/08/21 02:54:29;;;;;;;;;;;;;;;10.58;100.00;101589.41;6545410;22;19919;-86
2022/08/21 02:57:03;;;;;;;;;;;;;;;10.67;100.00;101597.66;6543969;22;19916;-86
2022/08/21 02:59:45;;;;;;;;;;;;;;;10.84;100.00;101596.28;6545584;22;19911;-83
2022/08/21 03:02:16;;;;;;;;;;;;;;;11.04;100.00;101602.66;6527299;22;19918;-84
2022/08/21 03:04:55;;;;;;;;;;;;;;;11.16;100.00;101602.47;6522853;22;19923;-87
2022/08/21 03:07:31;;;;;;;;;;;;;;;11.21;100.00;101603.94;6553108;22;20250;-87
2022/08/21 03:10:03;;;;;;;;;;;;;;;11.25;100.00;101595.50;6522786;22;19911;-87
2022/08/21 03:12:35;;;;;;;;;;;;;;;11.25;100.00;101603.53;6517187;22;19907;-87
2022/08/21 03:15:08;;;;;;;;;;;;;;;11.14;100.00;101595.56;6515849;22;19911;-87
2022/08/21 03:17:40;;;;;;;;;;;;;;;11.01;100.00;101603.75;6515999;22;19904;-85
2022/08/21 03:20:16;;;;;;;;;;;;;;;11.04;100.00;101583.97;6514327;22;19907;-85
2022/08/21 03:22:48;;;;;;;;;;;;;;;11.14;100.00;101596.41;6515019;22;20242;-85
2022/08/21 03:25:22;;;;;;;;;;;;;;;11.24;100.00;101596.50;6515171;22;19910;-86
2022/08/21 03:27:57;;;;;;;;;;;;;;;11.24;100.00;101595.66;6513919;22;20337;-85
2022/08/21 03:30:36;;;;;;;;;;;;;;;11.18;100.00;101596.16;6513409;22;19918;-84
2022/08/21 03:33:10;;;;;;;;;;;;;;;11.01;100.00;101597.56;6542156;22;19998;-84
2022/08/21 03:35:49;;;;;;;;;;;;;;;10.97;100.00;101591.63;6512338;22;20338;-85
2022/08/21 03:38:20;;;;;;;;;;;;;;;11.01;100.00;101595.75;6514860;22;20501;-84
2022/08/21 03:40:51;;;;;;;;;;;;;;;11.05;100.00;101591.00;6513666;22;19909;-85
2022/08/21 03:43:23;;;;;;;;;;;;;;;11.06;100.00;101595.34;6514496;22;19915;-84
2022/08/21 03:45:56;;;;;;;;;;;;;;;11.08;100.00;101591.59;6514032;22;19990;-84
2022/08/21 03:48:28;;;;;;;;;;;;;;;11.10;100.00;101584.31;6514496;22;20315;-83
2022/08/21 03:51:00;;;;;;;;;;;;;;;11.07;100.00;101573.03;6514668;22;19939;-84
2022/08/21 03:53:31;;;;;;;;;;;;;;;11.12;100.00;101585.03;6515034;22;20239;-84
2022/08/21 03:56:04;;;;;;;;;;;;;;;11.16;100.00;101581.09;6541114;22;19907;-84
2022/08/21 03:58:38;;;;;;;;;;;;;;;11.23;100.00;101577.94;6514166;22;19907;-83
2022/08/21 04:01:09;;;;;;;;;;;;;;;11.26;100.00;101581.19;6541246;22;19915;-84
2022/08/21 04:03:43;;;;;;;;;;;;;;;11.23;100.00;101586.78;6541314;22;19907;-84
2022/08/21 04:06:14;;;;;;;;;;;;;;;11.26;100.00;101591.03;6514271;22;20020;-83
2022/08/21 04:08:48;;;;;;;;;;;;;;;11.29;100.00;101591.63;6541482;22;19953;-83
2022/08/21 04:11:23;;;;;;;;;;;;;;;11.22;100.00;101573.56;6512890;22;20219;-83
2022/08/21 04:13:57;;;;;;;;;;;;;;;11.28;100.00;101592.59;6514667;22;19923;-84
2022/08/21 04:16:28;;;;;;;;;;;;;;;11.31;100.00;101596.84;6540626;22;20330;-84
2022/08/21 04:19:00;;;;;;;;;;;;;;;11.31;100.00;101592.34;6514800;22;19930;-83
2022/08/21 04:21:31;;;;;;;;;;;;;;;11.32;100.00;101603.88;6541294;22;19909;-84
2022/08/21 04:24:07;;;;;;;;;;;;;;;11.32;100.00;101603.88;6512787;22;19958;-83
2022/08/21 04:26:39;;;;;;;;;;;;;;;11.30;100.00;101598.66;6513651;22;19941;-84
2022/08/21 04:29:13;;;;;;;;;;;;;;;11.31;100.00;101596.84;6541186;22;19912;-83
2022/08/21 04:31:45;;;;;;;;;;;;;;;11.32;100.00;101607.38;6541004;22;19907;-84
2022/08/21 04:34:19;;;;;;;;;;;;;;;11.32;100.00;101607.38;6514214;22;19918;-84
2022/08/21 04:36:50;;;;;;;;;;;;;;;11.29;100.00;101612.13;6514319;22;19965;-83
2022/08/21 04:39:27;;;;;;;;;;;;;;;11.29;100.00;101607.66;6514135;22;19907;-84
2022/08/21 04:41:58;;;;;;;;;;;;;;;11.27;100.00;101609.59;6513573;22;19915;-84
2022/08/21 04:44:30;;;;;;;;;;;;;;;11.26;100.00;101612.41;6541026;22;19912;-84
2022/08/21 04:47:18;;;;;;;;;;;;;;;11.27;100.00;101614.09;6513502;22;19912;-86
2022/08/21 04:50:00;;;;;;;;;;;;;;;11.32;100.00;101612.72;6513489;22;20239;-85
2022/08/21 04:52:40;;;;;;;;;;;;;;;11.30;100.00;101612.00;6512943;22;19908;-85
2022/08/21 04:55:16;;;;;;;;;;;;;;;11.32;100.00;101617.22;6514367;22;20274;-86
2022/08/21 04:58:03;;;;;;;;;;;;;;;;;;;;;
2022/08/21 05:00:35;;;;;;;;;;;;;;;11.32;100.00;101615.38;6539064;22;42424;-84
2022/08/21 05:03:07;;;;;;;;;;;;;;;11.32;100.00;101614.53;6541150;22;19958;-84
2022/08/21 05:05:43;;;;;;;;;;;;;;;11.33;100.00;101621.59;6513508;22;19907;-84
2022/08/21 05:08:23;;;;;;;;;;;;;;;11.38;100.00;101621.19;6513810;22;20548;-84
2022/08/21 05:10:55;;;;;;;;;;;;;;;11.38;100.00;101622.06;6540563;22;19914;-84
2022/08/21 05:13:27;;;;;;;;;;;;;;;11.45;100.00;101630.41;6513381;22;19903;-84
2022/08/21 05:16:01;;;;;;;;;;;;;;;11.56;100.00;101632.19;6514271;22;19919;-84
2022/08/21 05:18:36;;;;;;;;;;;;;;;11.72;100.00;101629.88;6542531;22;19903;-86
2022/08/21 05:21:15;;;;;;;;;;;;;;;11.88;100.00;101638.28;6542298;22;19985;-86
2022/08/21 05:23:49;;;;;;;;;;;;;;;12.01;100.00;101627.44;6545827;22;19907;-86
2022/08/21 05:26:24;;;;;;;;;;;;;;;12.16;100.00;101635.94;6523013;22;19912;-86
2022/08/21 05:29:20;;;;;;;;;;;;;;;12.31;100.00;101639.09;6519763;22;19986;-86
2022/08/21 05:32:10;;;;;;;;;;;;;;;12.48;100.00;101643.81;6517436;22;20374;-86
2022/08/21 05:34:44;;;;;;;;;;;;;;;12.68;100.00;101638.53;6514003;22;19907;-86
2022/08/21 05:37:24;;;;;;;;;;;;;;;12.83;100.00;101642.53;6514699;22;19967;-86
2022/08/21 05:39:59;;;;;;;;;;;;;;;13.03;100.00;101646.06;6514338;22;19907;-85
2022/08/21 05:42:37;;;;;;;;;;;;;;;13.18;100.00;101645.66;6515529;22;19922;-85
2022/08/21 05:45:29;;;;;;;;;;;;;;;13.35;100.00;101642.31;6516096;22;19904;-85
2022/08/21 05:48:23;;;;;;;;;;;;;;;13.54;100.00;101646.81;6541760;22;19920;-85
2022/08/21 05:51:17;;;;;;;;;;;;;;;13.79;100.00;101648.03;6517993;22;19923;-85
2022/08/21 05:53:54;;;;;;;;;;;;;;;13.96;100.00;101643.78;6542589;22;19912;-85
2022/08/21 05:56:28;;;;;;;;;;;;;;;14.15;100.00;101644.72;6518061;22;19985;-86
2022/08/21 05:59:05;;;;;;;;;;;;;;;14.40;100.00;101642.38;6560951;22;19907;-86
2022/08/21 06:01:40;;;;;;;;;;;;;;;14.55;100.00;101644.41;6538402;22;19904;-86
2022/08/21 06:04:19;;;;;;;;;;;;;;;14.73;100.00;101635.59;6554109;22;20334;-86
2022/08/21 06:06:54;;;;;;;;;;;;;;;14.90;100.00;101636.59;6522845;22;20296;-86
2022/08/21 06:09:25;;;;;;;;;;;;;;;15.11;100.00;101631.81;6519670;22;19907;-85
2022/08/21 06:11:56;;;;;;;;;;;;;;;15.32;100.00;101628.81;6545256;22;19957;-83
2022/08/21 06:14:28;;;;;;;;;;;;;;;15.51;100.00;101624.25;6542006;22;19918;-83
2022/08/21 06:17:06;;;;;;;;;;;;;;;15.74;100.00;101626.44;6516656;22;19907;-83
2022/08/21 06:19:38;;;;;;;;;;;;;;;15.78;100.00;101633.22;6541941;22;19914;-83
2022/08/21 06:22:09;;;;;;;;;;;;;;;15.96;100.00;101636.72;6515916;22;19903;-83
2022/08/21 06:24:41;;;;;;;;;;;;;;;16.24;100.00;101631.16;6543544;22;20337;-83
2022/08/21 06:27:12;;;;;;;;;;;;;;;16.33;100.00;101624.78;6543361;22;19903;-83
2022/08/21 06:29:44;;;;;;;;;;;;;;;16.44;100.00;101629.03;6515221;22;19904;-83
2022/08/21 06:32:16;;;;;;;;;;;;;;;16.51;100.00;101627.38;6516201;22;20282;-83
2022/08/21 06:34:47;;;;;;;;;;;;;;;16.61;100.00;101617.31;6516065;22;19939;-83
2022/08/21 06:37:18;;;;;;;;;;;;;;;16.65;100.00;101623.22;6543146;22;19998;-83
2022/08/21 06:39:50;;;;;;;;;;;;;;;16.84;100.00;101624.84;6543407;22;19911;-83
2022/08/21 06:42:21;;;;;;;;;;;;;;;17.11;100.00;101639.03;6541278;22;19913;-82
2022/08/21 06:44:52;;;;;;;;;;;;;;;17.38;100.00;101625.25;6541298;22;19904;-82
2022/08/21 06:47:23;;;;;;;;;;;;;;;17.60;100.00;101631.00;6542972;22;19998;-83
2022/08/21 06:49:55;;;;;;;;;;;;;;;17.85;100.00;101637.19;6512500;22;19915;-82
2022/08/21 06:52:26;;;;;;;;;;;;;;;17.99;100.00;101629.41;6514229;22;20713;-82
2022/08/21 06:54:57;;;;;;;;;;;;;;;18.28;100.00;101623.44;6541915;22;19903;-82
2022/08/21 06:57:29;;;;;;;;;;;;;;;18.50;100.00;101624.53;6515368;22;19907;-82
2022/08/21 07:00:00;;;;;;;;;;;;;;;18.76;100.00;101629.66;6513659;22;19929;-82
2022/08/21 07:02:33;;;;;;;;;;;;;;;19.06;100.00;101629.84;6516359;22;19912;-82
2022/08/21 07:05:04;;;;;;;;;;;;;;;19.44;100.00;101622.63;6542555;22;19904;-82
2022/08/21 07:07:36;;;;;;;;;;;;;;;19.79;100.00;101617.59;6542451;22;19903;-82
2022/08/21 07:10:07;;;;;;;;;;;;;;;20.11;100.00;101615.56;6541604;22;19946;-82
2022/08/21 07:12:39;;;;;;;;;;;;;;;20.38;100.00;101616.75;6540339;22;19923;-84
2022/08/21 07:15:10;;;;;;;;;;;;;;;20.45;100.00;101622.25;6538398;22;20312;-83
2022/08/21 07:17:42;;;;;;;;;;;;;;;20.59;100.00;101615.13;6540520;22;19907;-82
2022/08/21 07:20:13;;;;;;;;;;;;;;;21.00;100.00;101613.72;6540812;22;19911;-83
2022/08/21 07:22:44;;;;;;;;;;;;;;;21.35;100.00;101620.13;6541938;22;20279;-82
2022/08/21 07:25:16;;;;;;;;;;;;;;;21.44;100.00;101620.81;6516202;22;19914;-83
2022/08/21 07:27:49;;;;;;;;;;;;;;;21.50;100.00;101611.94;6543246;22;20331;-82
2022/08/21 07:30:21;;;;;;;;;;;;;;;21.37;100.00;101618.06;6542613;22;20243;-82
2022/08/21 07:32:52;;;;;;;;;;;;;;;21.56;100.00;101621.16;6516662;22;19938;-82
2022/08/21 07:35:24;;;;;;;;;;;;;;;21.44;100.00;101621.69;6516244;22;19903;-82
2022/08/21 07:37:55;;;;;;;;;;;;;;;21.12;100.00;101621.16;6516496;22;20417;-82
2022/08/21 07:40:27;;;;;;;;;;;;;;;21.42;100.00;101625.59;6516405;22;19904;-82
2022/08/21 07:42:58;;;;;;;;;;;;;;;22.04;100.00;101618.59;6516535;22;20641;-82
2022/08/21 07:45:29;;;;;;;;;;;;;;;22.58;100.00;101617.00;6517100;22;21113;-82
2022/08/21 07:48:01;;;;;;;;;;;;;;;22.98;100.00;101609.81;6543175;22;19949;-83
2022/08/21 07:50:32;;;;;;;;;;;;;;;23.32;100.00;101607.97;6516910;22;20247;-82
2022/08/21 07:53:04;;;;;;;;;;;;;;;23.58;100.00;101614.50;6516710;22;19903;-82
2022/08/21 07:55:35;;;;;;;;;;;;;;;22.99;100.00;101610.63;6516407;22;19934;-82
2022/08/21 07:58:06;;;;;;;;;;;;;;;22.85;100.00;101607.88;6516775;22;19903;-83
2022/08/21 08:00:39;;;;;;;;;;;;;;;23.38;100.00;101609.84;6543894;22;19926;-82
2022/08/21 08:03:11;;;;;;;;;;;;;;;23.95;100.00;101609.44;6545030;22;20246;-82
2022/08/21 08:05:42;;;;;;;;;;;;;;;24.38;100.00;101610.78;6548068;22;19903;-82
2022/08/21 08:08:14;;;;;;;;;;;;;;;24.76;100.00;101610.00;6520042;22;19904;-82
2022/08/21 08:10:45;;;;;;;;;;;;;;;24.97;100.00;101615.09;6546658;22;19907;-83
2022/08/21 08:13:17;;;;;;;;;;;;;;;25.09;100.00;101607.88;6517963;22;19954;-82
2022/08/21 08:15:48;;;;;;;;;;;;;;;25.14;100.00;101607.25;6546512;22;19939;-82
2022/08/21 08:18:19;;;;;;;;;;;;;;;25.54;100.00;101612.38;6518074;22;20037;-82
2022/08/21 08:20:51;;;;;;;;;;;;;;;25.67;100.00;101611.44;6517504;22;20296;-82
2022/08/21 08:23:22;;;;;;;;;;;;;;;25.69;100.00;101609.31;6515015;22;19911;-79
2022/08/21 08:25:54;;;;;;;;;;;;;;;26.31;100.00;101603.81;6515213;22;19904;-79
2022/08/21 08:28:26;;;;;;;;;;;;;;;26.91;100.00;101605.81;6543466;22;20294;-83
2022/08/21 08:30:58;;;;;;;;;;;;;;;27.64;100.00;101605.72;6544386;22;19904;-83
2022/08/21 08:33:29;;;;;;;;;;;;;;;28.39;100.00;101601.34;6518191;22;19904;-82
2022/08/21 08:36:01;;;;;;;;;;;;;;;28.62;100.00;101609.50;6546610;22;19912;-82
2022/08/21 08:38:32;;;;;;;;;;;;;;;28.91;100.00;101603.16;6521556;22;19904;-83
2022/08/21 08:41:12;;;;;;;;;;;;;;;28.67;100.00;101595.06;6521170;22;19951;-83
2022/08/21 08:43:48;;;;;;;;;;;;;;;29.07;100.00;101599.63;6547812;22;19907;-83
2022/08/21 08:46:28;;;;;;;;;;;;;;;29.28;100.00;101605.47;6545261;22;19982;-83
2022/08/21 08:49:05;;;;;;;;;;;;;;;29.71;100.00;101591.03;6545383;22;19911;-83
2022/08/21 08:51:46;;;;;;;;;;;;;;;30.27;100.00;101593.72;6545229;22;19908;-83
2022/08/21 08:54:21;;;;;;;;;;;;;;;30.62;100.00;101588.91;6518308;22;19907;-84
2022/08/21 08:56:54;;;;;;;;;;;;;;;30.97;97.49;101593.16;6545146;22;19911;-83
2022/08/21 08:59:27;;;;;;;;;;;;;;;31.17;85.83;101582.31;6545249;22;19907;-83
2022/08/21 09:01:58;;;;;;;;;;;;;;;31.97;100.00;101578.69;6544866;22;19950;-82
2022/08/21 09:04:30;;;;;;;;;;;;;;;31.58;95.17;101577.13;6544475;22;20332;-83
2022/08/21 09:07:16;;;;;;;;;;;;;;;31.14;90.54;101571.81;6545044;22;19907;-83
2022/08/21 09:10:10;;;;;;;;;;;;;;;31.07;100.00;101566.53;6544813;22;19935;-83
2022/08/21 09:13:00;;;;;;;;;;;;;;;30.57;98.77;101570.41;6494042;22;20384;-82
2022/08/21 09:15:36;;;;;;;;;;;;;;;29.38;100.00;101564.44;6545191;22;20421;-83
2022/08/21 09:18:20;;;;;;;;;;;;;;;28.96;100.00;101568.41;6544786;22;20021;-83
2022/08/21 09:20:51;;;;;;;;;;;;;;;29.16;100.00;101556.97;6545166;22;19904;-83
2022/08/21 09:23:22;;;;;;;;;;;;;;;29.20;91.44;101573.75;6544580;22;19914;-83
2022/08/21 09:26:00;;;;;;;;;;;;;;;29.22;96.87;101566.94;6517985;22;19978;-83
2022/08/21 09:28:33;;;;;;;;;;;;;;;29.93;100.00;101576.53;6544447;22;19908;-81
2022/08/21 09:31:20;;;;;;;;;;;;;;;30.06;84.70;101570.63;6546213;22;20242;-81
2022/08/21 09:34:04;;;;;;;;;;;;;;;30.17;90.92;101572.44;6517522;22;19910;-82
2022/08/21 09:36:48;;;;;;;;;;;;;;;31.09;83.24;101569.03;6543717;22;19910;-82
2022/08/21 09:39:28;;;;;;;;;;;;;;;31.56;63.84;101573.81;6517111;22;19907;-82
2022/08/21 09:42:04;;;;;;;;;;;;;;;32.78;64.46;101572.66;6544347;22;19903;-82
2022/08/21 09:44:39;;;;;;;;;;;;;;;33.97;68.57;101569.75;6543502;22;19911;-82
2022/08/21 09:47:12;;;;;;;;;;;;;;;34.78;62.76;101574.03;6518103;22;19916;-82
2022/08/21 09:49:43;;;;;;;;;;;;;;;35.02;52.22;101581.63;6517822;22;19947;-81
2022/08/21 09:52:23;;;;;;;;;;;;;;;34.06;58.56;101573.59;6518165;22;20325;-82
2022/08/21 09:54:55;;;;;;;;;;;;;;;32.34;62.59;101577.75;6544071;22;19903;-82
2022/08/21 09:57:45;;;;;;;;;;;;;;;32.55;57.50;101573.94;6518130;22;19904;-82
2022/08/21 10:00:29;;;;;;;;;;;;;;;33.15;64.18;101566.06;6516881;22;19903;-81
2022/08/21 10:03:07;;;;;;;;;;;;;;;32.66;64.74;101568.47;6517446;22;20273;-81
2022/08/21 10:05:39;;;;;;;;;;;;;;;30.95;90.37;101567.81;6544700;22;19912;-82
2022/08/21 10:08:18;;;;;;;;;;;;;;;30.72;90.22;101553.25;6544702;22;19994;-81
2022/08/21 10:10:55;;;;;;;;;;;;;;;30.83;70.49;101551.41;6517326;22;19954;-82
2022/08/21 10:13:26;;;;;;;;;;;;;;;32.42;77.27;101557.91;6517717;22;19903;-82
2022/08/21 10:16:09;;;;;;;;;;;;;;;33.96;67.88;101562.56;6544964;22;19946;-82
2022/08/21 10:18:42;;;;;;;;;;;;;;;32.10;63.83;101567.22;6543845;22;19931;-81
2022/08/21 10:21:46;;;;;;;;;;;;;;;30.21;69.04;101571.91;6544058;22;19911;-82
2022/08/21 10:24:23;;;;;;;;;;;;;;;30.35;71.48;101567.72;6418342;22;19911;-81
2022/08/21 10:26:59;;;;;;;;;;;;;;;30.12;72.42;101557.78;6544247;22;19904;-81
2022/08/21 10:29:31;;;;;;;;;;;;;;;30.08;92.73;101562.94;6517033;22;19914;-82
2022/08/21 10:32:21;;;;;;;;;;;;;;;30.12;74.79;101555.03;6543734;22;19903;-81
2022/08/21 10:35:21;;;;;;;;;;;;;;;30.47;90.75;101556.53;6544720;22;20388;-81
2022/08/21 10:38:11;;;;;;;;;;;;;;;31.24;79.89;101549.84;6508926;22;20322;-81
2022/08/21 10:41:00;;;;;;;;;;;;;;;30.98;83.01;101554.34;6517293;22;19903;-81
2022/08/21 10:43:51;;;;;;;;;;;;;;;30.20;60.60;101549.06;6544869;22;19977;-82
2022/08/21 10:46:51;;;;;;;;;;;;;;;30.66;59.84;101559.78;6544679;22;19946;-81
2022/08/21 10:49:41;;;;;;;;;;;;;;;31.19;74.17;101555.31;6503619;22;19939;-81
2022/08/21 10:52:21;;;;;;;;;;;;;;;30.76;60.56;101556.31;6517231;22;19926;-81
2022/08/21 10:54:59;;;;;;;;;;;;;;;30.60;62.63;101555.31;6543977;22;19911;-81
2022/08/21 10:57:46;;;;;;;;;;;;;;;29.85;63.53;101555.78;6517256;22;20032;-81
2022/08/21 11:00:21;;;;;;;;;;;;;;;28.96;82.82;101548.34;6544812;22;19908;-81
2022/08/21 11:03:10;;;;;;;;;;;;;;;29.62;95.79;101553.25;6543739;22;19918;-81
2022/08/21 11:05:55;;;;;;;;;;;;;;;29.66;92.27;101557.97;6517555;22;19903;-81
2022/08/21 11:08:33;;;;;;;;;;;;;;;29.19;93.66;101541.88;6517038;22;19920;-81
2022/08/21 11:11:20;;;;;;;;;;;;;;;29.96;87.91;101552.09;6518604;22;19934;-81
2022/08/21 11:13:53;;;;;;;;;;;;;;;30.83;85.72;101552.22;6517461;22;19918;-82
2022/08/21 11:16:43;;;;;;;;;;;;;;;32.01;66.47;101544.81;6543983;22;20237;-81
2022/08/21 11:19:15;;;;;;;;;;;;;;;31.04;66.85;101545.00;6517774;22;19954;-82
2022/08/21 11:21:55;;;;;;;;;;;;;;;31.72;74.45;101555.41;6517806;22;20326;-82
2022/08/21 11:24:44;;;;;;;;;;;;;;;31.98;72.42;101541.75;6544665;22;19961;-82
2022/08/21 11:27:26;;;;;;;;;;;;;;;32.05;55.30;101545.13;6545970;22;19919;-83
2022/08/21 11:29:58;;;;;;;;;;;;;;;31.96;55.05;101541.16;6518667;22;19991;-82
2022/08/21 11:33:05;;;;;;;;;;;;;;;33.37;61.57;101534.50;6546160;22;19904;-82
2022/08/21 11:35:42;;;;;;;;;;;;;;;35.17;48.48;101527.97;6332046;23;19909;-82
2022/08/21 11:38:32;;;;;;;;;;;;;;;34.83;53.35;101528.84;6496561;22;19910;-82
2022/08/21 11:41:04;;;;;;;;;;;;;;;36.18;45.76;101537.41;6545725;22;19907;-82
2022/08/21 11:43:38;;;;;;;;;;;;;;;35.70;49.89;101536.31;6544469;22;19965;-82
2022/08/21 11:46:28;;;;;;;;;;;;;;;35.69;50.53;101542.97;6517524;22;20245;-82
2022/08/21 11:49:05;;;;;;;;;;;;;;;36.42;39.86;101535.41;6544371;22;20041;-82
2022/08/21 11:51:40;;;;;;;;;;;;;;;36.90;39.90;101546.31;6546747;22;19970;-82
2022/08/21 11:54:31;;;;;;;;;;;;;;;38.16;39.41;101542.53;6545093;22;19953;-83
2022/08/21 11:57:08;;;;;;;;;;;;;;;38.94;38.10;101553.50;6569340;22;19907;-82
2022/08/21 11:59:42;;;;;;;;;;;;;;;39.76;35.91;101556.03;6569993;22;19911;-81
2022/08/21 12:02:16;;;;;;;;;;;;;;;40.32;38.05;101556.31;6569244;22;19911;-81
2022/08/21 12:04:51;;;;;;;;;;;;;;;40.78;31.79;101556.81;6570299;22;19934;-81
2022/08/21 12:07:30;;;;;;;;;;;;;;;39.46;32.63;101552.97;6521183;22;19926;-82
2022/08/21 12:10:05;;;;;;;;;;;;;;;37.02;33.00;101550.56;6517242;22;19978;-82
2022/08/21 12:12:41;;;;;;;;;;;;;;;35.20;37.99;101549.56;6546337;22;20392;-81
2022/08/21 12:15:14;;;;;;;;;;;;;;;34.95;50.69;101548.69;6545260;22;19918;-82
2022/08/21 12:21:04;;;;;;;;;;;;;;;32.97;47.78;101550.81;6552806;22;20279;-81
2022/08/21 12:23:54;;;;;;;;;;;;;;;33.71;45.26;101539.41;6516476;22;19934;-82
2022/08/21 12:26:27;;;;;;;;;;;;;;;36.27;41.70;101549.50;6543110;22;19926;-82
2022/08/21 12:29:09;;;;;;;;;;;;;;;38.38;41.10;101550.09;6544609;22;19904;-82
2022/08/21 12:31:48;;;;;;;;;;;;;;;40.38;33.56;101537.47;6544858;22;19911;-82
2022/08/21 12:34:20;;;;;;;;;;;;;;;41.68;35.67;101541.94;6518215;22;20314;-82
2022/08/21 12:36:59;;;;;;;;;;;;;;;41.23;27.55;101547.19;6545071;22;19903;-82
2022/08/21 12:39:33;;;;;;;;;;;;;;;40.01;33.53;101540.53;6544307;22;19903;-82
2022/08/21 12:42:15;;;;;;;;;;;;;;;40.55;29.50;101543.03;6518071;22;20818;-82
2022/08/21 12:44:52;;;;;;;;;;;;;;;39.64;38.12;101531.56;6544730;22;19907;-81
2022/08/21 12:47:26;;;;;;;;;;;;;;;35.87;32.99;101532.25;6544538;22;19903;-81
2022/08/21 12:50:10;;;;;;;;;;;;;;;33.42;35.35;101537.25;6544444;22;19959;-80
2022/08/21 12:52:56;;;;;;;;;;;;;;;31.26;53.17;101533.06;6545929;22;19903;-80
2022/08/21 12:55:29;;;;;;;;;;;;;;;30.32;79.13;101546.19;6542417;22;19961;-80
2022/08/21 12:58:15;;;;;;;;;;;;;;;30.36;75.26;101539.09;6542597;22;19918;-83
2022/08/21 13:00:50;;;;;;;;;;;;;;;33.68;55.96;101535.28;6544911;22;20352;-81
2022/08/21 13:03:23;;;;;;;;;;;;;;;36.46;44.37;101525.31;6543522;22;19911;-80
2022/08/21 13:05:54;;;;;;;;;;;;;;;34.92;36.86;101529.88;6515570;22;19904;-80
2022/08/21 13:08:55;;;;;;;;;;;;;;;;;;;;;
2022/08/21 13:11:26;;;;;;;;;;;;;;;34.37;57.25;101537.47;6542970;22;41400;-81
2022/08/21 13:13:57;;;;;;;;;;;;;;;36.58;47.06;101537.94;6516023;22;19911;-81
2022/08/21 13:16:29;;;;;;;;;;;;;;;38.52;32.22;101544.47;6542341;22;19907;-81
2022/08/21 13:19:02;;;;;;;;;;;;;;;38.85;29.30;101540.63;6514994;22;19907;-81
2022/08/21 13:21:56;;;;;;;;;;;;;;;38.84;32.85;101537.03;6544627;22;19907;-81